Time;durP1;ratioP1;P1;durP2;ratioP2;P2;SDS_P1;SDS_P2;PMS_P1;PMS_P2;Temp;Humidity;BMP_temperature;BMP_pressure;BME280_temperature;BME280_humidity;BME280_pressure;Samples;Min_cycle;Max_cycle;Signal;HPM_P1;HPM_P2
2023/08/16 00:02:09;;;;;;;1.77;0.20;;;23.80;86.70;;;;;;5054803;28;20029;-81
2023/08/16 00:04:35;;;;;;;1.20;0.22;;;23.80;87.00;;;;;;5055987;28;20052;-81
2023/08/16 00:07:01;;;;;;;0.60;0.20;;;23.80;87.20;;;;;;5055390;28;20082;-81
2023/08/16 00:09:27;;;;;;;1.25;0.20;;;23.80;87.20;;;;;;5055028;28;20388;-81
2023/08/16 00:11:53;;;;;;;1.58;0.20;;;23.80;87.30;;;;;;5055257;28;20037;-81
2023/08/16 00:14:18;;;;;;;1.75;0.30;;;23.80;87.40;;;;;;5055745;28;20033;-81
2023/08/16 00:16:44;;;;;;;1.80;0.20;;;23.80;87.40;;;;;;5054811;28;20079;-81
2023/08/16 00:19:10;;;;;;;2.10;0.30;;;23.80;87.20;;;;;;5055413;28;20033;-80
2023/08/16 00:21:35;;;;;;;1.35;0.47;;;23.80;87.30;;;;;;5053764;28;20045;-81
2023/08/16 00:24:04;;;;;;;0.60;0.20;;;23.80;87.60;;;;;;5054553;28;20331;-80
2023/08/16 00:26:30;;;;;;;1.00;0.40;;;23.80;87.70;;;;;;5053723;28;20044;-80
2023/08/16 00:28:55;;;;;;;0.98;0.20;;;23.80;87.70;;;;;;5054927;28;20465;-80
2023/08/16 00:31:22;;;;;;;1.17;0.20;;;23.80;87.80;;;;;;5054518;28;20028;-81
2023/08/16 00:33:48;;;;;;;1.33;0.38;;;23.80;87.80;;;;;;5054778;28;20029;-81
2023/08/16 00:36:14;;;;;;;1.33;0.30;;;23.70;87.20;;;;;;5053558;28;20033;-81
2023/08/16 00:38:42;;;;;;;0.50;0.20;;;23.70;87.10;;;;;;5053579;28;20033;-81
2023/08/16 00:41:12;;;;;;;1.65;0.28;;;23.60;87.00;;;;;;5054893;28;20056;-82
2023/08/16 00:43:38;;;;;;;1.33;0.40;;;23.50;86.50;;;;;;5053629;28;20507;-81
2023/08/16 00:46:07;;;;;;;2.60;0.55;;;23.40;87.00;;;;;;5054643;28;20133;-81
2023/08/16 00:48:36;;;;;;;0.70;0.30;;;23.40;86.60;;;;;;5053438;28;20069;-81
2023/08/16 00:51:03;;;;;;;1.92;0.20;;;23.30;87.30;;;;;;5054759;28;20047;-81
2023/08/16 00:53:31;;;;;;;0.80;0.30;;;23.40;87.90;;;;;;5053735;28;20115;-81
2023/08/16 00:55:57;;;;;;;3.17;0.60;;;23.40;88.10;;;;;;5054064;28;20039;-81
2023/08/16 00:58:24;;;;;;;2.33;0.30;;;23.40;86.30;;;;;;5054597;28;20051;-82
2023/08/16 01:00:50;;;;;;;3.10;0.50;;;23.30;86.80;;;;;;5054119;28;20038;-82
2023/08/16 01:03:16;;;;;;;3.33;0.88;;;23.20;87.40;;;;;;5054543;28;20113;-81
2023/08/16 01:05:41;;;;;;;2.33;0.40;;;23.10;87.30;;;;;;5053002;28;20543;-82
2023/08/16 01:08:07;;;;;;;2.45;0.45;;;23.10;87.80;;;;;;5053318;28;20167;-82
2023/08/16 01:10:41;;;;;;;1.42;0.35;;;23.00;86.80;;;;;;5054670;28;20032;-82
2023/08/16 01:13:24;;;;;;;1.25;0.30;;;22.90;87.20;;;;;;5054170;28;20034;-82
2023/08/16 01:15:50;;;;;;;1.27;0.30;;;22.80;87.50;;;;;;5054744;28;20025;-81
2023/08/16 01:18:17;;;;;;;1.30;0.30;;;22.80;88.00;;;;;;5054061;28;20025;-82
2023/08/16 01:20:47;;;;;;;1.02;0.43;;;22.80;87.80;;;;;;5053906;28;20045;-81
2023/08/16 01:23:53;;;;;;;0.88;0.30;;;22.80;88.10;;;;;;5053942;28;20053;-81
2023/08/16 01:26:28;;;;;;;1.35;0.40;;;22.70;88.60;;;;;;5053335;28;20539;-81
2023/08/16 01:28:55;;;;;;;1.15;0.35;;;22.70;88.40;;;;;;5054250;28;20025;-81
2023/08/16 01:31:21;;;;;;;1.10;0.20;;;22.70;88.70;;;;;;5053502;28;20029;-81
2023/08/16 01:33:47;;;;;;;2.92;0.47;;;22.80;89.30;;;;;;5053626;28;20036;-81
2023/08/16 01:36:12;;;;;;;1.73;0.30;;;22.80;89.00;;;;;;5052734;28;20029;-81
2023/08/16 01:38:39;;;;;;;1.27;0.20;;;22.80;88.70;;;;;;5053761;28;20037;-81
2023/08/16 01:41:19;;;;;;;1.77;0.35;;;22.90;88.90;;;;;;5053087;28;20043;-81
2023/08/16 01:43:47;;;;;;;0.60;0.30;;;22.90;89.00;;;;;;5053748;28;20024;-81
2023/08/16 01:46:14;;;;;;;1.85;0.32;;;23.00;89.20;;;;;;5053861;28;20067;-81
2023/08/16 01:48:41;;;;;;;1.67;0.35;;;23.00;89.20;;;;;;5053350;28;20025;-80
2023/08/16 01:51:07;;;;;;;0.88;0.30;;;23.00;88.80;;;;;;5052123;28;20509;-80
2023/08/16 01:53:34;;;;;;;0.70;0.30;;;23.00;88.90;;;;;;5052461;28;20043;-80
2023/08/16 01:56:00;;;;;;;1.00;0.30;;;23.10;89.10;;;;;;5051644;28;20485;-81
2023/08/16 01:58:26;;;;;;;2.33;0.43;;;23.10;88.80;;;;;;5053576;28;20354;-81
2023/08/16 02:00:51;;;;;;;0.70;0.20;;;23.10;88.90;;;;;;5053942;28;20083;-81
2023/08/16 02:03:17;;;;;;;1.80;0.52;;;23.10;89.00;;;;;;5054017;28;20033;-81
2023/08/16 02:05:43;;;;;;;2.35;0.30;;;23.10;88.90;;;;;;5053235;28;20029;-81
2023/08/16 02:08:10;;;;;;;2.45;0.50;;;23.10;89.00;;;;;;5052258;28;20120;-81
2023/08/16 02:10:39;;;;;;;1.48;0.35;;;23.20;88.40;;;;;;5053074;28;20051;-81
2023/08/16 02:13:05;;;;;;;1.20;0.35;;;23.10;88.30;;;;;;5053377;28;20037;-80
2023/08/16 02:15:30;;;;;;;1.02;0.25;;;23.00;88.30;;;;;;5052440;28;20033;-81
2023/08/16 02:17:56;;;;;;;1.35;0.30;;;23.00;88.70;;;;;;5053368;28;20389;-81
2023/08/16 02:20:22;;;;;;;1.67;0.35;;;23.00;88.30;;;;;;5053343;28;20373;-81
2023/08/16 02:22:47;;;;;;;4.72;0.75;;;22.90;88.30;;;;;;5052111;28;20048;-81
2023/08/16 02:25:13;;;;;;;1.83;0.40;;;22.80;87.80;;;;;;5052396;28;20044;-80
2023/08/16 02:27:39;;;;;;;0.88;0.30;;;22.80;88.60;;;;;;5052024;28;20040;-80
2023/08/16 02:30:06;;;;;;;1.98;0.30;;;22.80;88.80;;;;;;5051930;28;20074;-80
2023/08/16 02:32:33;;;;;;;2.15;0.57;;;22.80;88.80;;;;;;5051979;28;20029;-80
2023/08/16 02:34:59;;;;;;;2.15;0.65;;;22.80;88.90;;;;;;5051928;28;20055;-81
2023/08/16 02:37:26;;;;;;;1.95;0.52;;;22.80;89.20;;;;;;5053652;28;20061;-81
2023/08/16 02:39:52;;;;;;;2.50;0.40;;;22.80;88.40;;;;;;5052899;28;20057;-80
2023/08/16 02:42:18;;;;;;;2.65;0.50;;;22.80;89.20;;;;;;5051749;28;20068;-80
2023/08/16 02:44:43;;;;;;;0.80;0.30;;;22.80;88.90;;;;;;5053687;28;20037;-80
2023/08/16 02:47:09;;;;;;;1.13;0.20;;;22.80;89.50;;;;;;5053099;28;20032;-80
2023/08/16 02:49:35;;;;;;;1.92;0.43;;;22.80;89.30;;;;;;5053100;28;20118;-81
2023/08/16 02:52:00;;;;;;;1.58;0.35;;;22.70;88.40;;;;;;5052799;28;20060;-81
2023/08/16 02:54:26;;;;;;;1.38;0.22;;;22.60;88.60;;;;;;5053295;28;20462;-81
2023/08/16 02:56:51;;;;;;;1.70;0.30;;;22.60;89.10;;;;;;5051706;28;20029;-81
2023/08/16 02:59:17;;;;;;;0.98;0.20;;;22.70;89.60;;;;;;5051809;28;20090;-81
2023/08/16 03:01:43;;;;;;;3.40;0.30;;;22.80;89.90;;;;;;5051406;28;20120;-81
2023/08/16 03:04:10;;;;;;;0.75;0.30;;;22.80;90.00;;;;;;5052735;28;20156;-81
2023/08/16 03:06:35;;;;;;;1.13;0.30;;;22.80;89.80;;;;;;5053195;28;20059;-80
2023/08/16 03:09:01;;;;;;;1.63;0.40;;;22.80;90.00;;;;;;5055792;28;20469;-80
2023/08/16 03:11:27;;;;;;;2.22;0.30;;;22.80;90.10;;;;;;5056089;28;20036;-81
2023/08/16 03:13:52;;;;;;;1.55;0.30;;;22.80;90.10;;;;;;5056644;28;20044;-80
2023/08/16 03:16:18;;;;;;;1.13;0.22;;;22.90;90.00;;;;;;5038543;28;20029;-81
2023/08/16 03:18:44;;;;;;;2.05;0.20;;;22.90;90.00;;;;;;5055013;28;20443;-81
2023/08/16 03:21:09;;;;;;;1.00;0.30;;;22.90;90.00;;;;;;5054670;28;20037;-81
2023/08/16 03:23:35;;;;;;;1.65;0.30;;;22.90;90.00;;;;;;5038880;28;20030;-81
2023/08/16 03:26:01;;;;;;;1.75;0.40;;;22.90;90.00;;;;;;5056108;28;20029;-81
2023/08/16 03:28:26;;;;;;;1.23;0.25;;;22.90;90.00;;;;;;5056166;28;20466;-80
2023/08/16 03:30:52;;;;;;;1.38;0.25;;;22.90;90.10;;;;;;5056561;28;20366;-81
2023/08/16 03:33:17;;;;;;;1.00;0.30;;;22.90;90.40;;;;;;5055726;28;20466;-81
2023/08/16 03:35:43;;;;;;;0.70;0.30;;;22.90;90.00;;;;;;5056032;28;20036;-80
2023/08/16 03:38:09;;;;;;;1.58;0.30;;;22.90;90.10;;;;;;5055660;28;20435;-80
2023/08/16 03:40:34;;;;;;;1.30;0.30;;;23.00;90.20;;;;;;5055692;28;20059;-80
2023/08/16 03:43:00;;;;;;;1.02;0.30;;;22.90;90.20;;;;;;5056094;28;20075;-80
2023/08/16 03:45:26;;;;;;;3.08;0.50;;;22.90;90.20;;;;;;5055533;28;20362;-80
2023/08/16 03:47:53;;;;;;;2.22;0.30;;;23.00;90.20;;;;;;5054461;28;20033;-80
2023/08/16 03:50:19;;;;;;;1.98;0.57;;;23.00;90.10;;;;;;5055716;28;20036;-80
2023/08/16 03:52:45;;;;;;;1.27;0.47;;;22.90;89.90;;;;;;5055494;28;20516;-80
2023/08/16 03:55:10;;;;;;;2.33;0.60;;;22.90;89.80;;;;;;5055705;28;20175;-80
2023/08/16 03:57:36;;;;;;;1.95;0.40;;;22.70;89.60;;;;;;5054661;28;20047;-80
2023/08/16 04:00:05;;;;;;;1.52;0.22;;;22.60;90.00;;;;;;5054588;28;20035;-80
2023/08/16 04:02:30;;;;;;;1.52;0.55;;;22.60;90.20;;;;;;5055666;28;20033;-81
2023/08/16 04:05:11;;;;;;;2.33;0.73;;;22.60;90.00;;;;;;5054277;28;20044;-81
2023/08/16 04:07:37;;;;;;;2.20;0.40;;;22.60;90.10;;;;;;5054688;28;20048;-80
2023/08/16 04:10:03;;;;;;;1.73;0.60;;;22.50;90.20;;;;;;5055710;28;20025;-81
2023/08/16 04:12:29;;;;;;;3.47;0.43;;;22.60;90.30;;;;;;5055607;28;20029;-81
2023/08/16 04:14:54;;;;;;;1.85;0.40;;;22.60;90.40;;;;;;5055299;28;20029;-80
2023/08/16 04:17:20;;;;;;;1.13;0.45;;;22.60;90.40;;;;;;5054727;28;20021;-80
2023/08/16 04:19:45;;;;;;;1.25;0.30;;;22.70;90.40;;;;;;5054774;28;20123;-81
2023/08/16 04:22:11;;;;;;;2.08;0.50;;;22.60;90.40;;;;;;5055000;28;20029;-81
2023/08/16 04:24:37;;;;;;;1.35;0.40;;;22.70;90.40;;;;;;5054216;28;20067;-81
2023/08/16 04:27:04;;;;;;;1.02;0.40;;;22.70;90.30;;;;;;5054976;28;20517;-81
2023/08/16 04:29:30;;;;;;;1.75;0.50;;;22.60;90.30;;;;;;5054148;28;20037;-80
2023/08/16 04:31:56;;;;;;;1.75;0.40;;;22.60;90.40;;;;;;5054621;28;20493;-81
2023/08/16 04:34:22;;;;;;;0.52;0.30;;;22.60;90.60;;;;;;5054587;28;20428;-81
2023/08/16 04:36:48;;;;;;;1.80;0.30;;;22.60;90.70;;;;;;5055087;28;20029;-81
2023/08/16 04:39:13;;;;;;;1.33;0.40;;;22.60;90.60;;;;;;5053539;28;20082;-81
2023/08/16 04:41:39;;;;;;;1.58;0.40;;;22.60;90.60;;;;;;5054522;28;20033;-81
2023/08/16 04:44:05;;;;;;;1.98;0.40;;;22.60;90.60;;;;;;5053401;28;20040;-81
2023/08/16 04:46:30;;;;;;;2.22;0.35;;;22.60;90.70;;;;;;5037041;28;20025;-81
2023/08/16 04:48:56;;;;;;;1.38;0.30;;;22.60;90.70;;;;;;5054896;28;20377;-81
2023/08/16 04:51:22;;;;;;;2.22;0.40;;;22.60;90.70;;;;;;5054956;28;20442;-81
2023/08/16 04:53:48;;;;;;;1.35;0.30;;;22.60;90.70;;;;;;5054291;28;20089;-81
2023/08/16 04:56:13;;;;;;;1.10;0.30;;;22.60;91.00;;;;;;5037330;28;20083;-82
2023/08/16 04:58:39;;;;;;;1.35;0.40;;;22.60;90.80;;;;;;5054290;28;20044;-81
2023/08/16 05:01:05;;;;;;;1.30;0.40;;;22.60;90.70;;;;;;5054285;28;20036;-81
2023/08/16 05:03:31;;;;;;;0.70;0.30;;;22.60;90.80;;;;;;5053923;28;20155;-81
2023/08/16 05:06:01;;;;;;;2.15;0.20;;;22.60;90.80;;;;;;5054438;28;20037;-81
2023/08/16 05:08:27;;;;;;;1.75;0.60;;;22.60;90.80;;;;;;5054363;28;20036;-81
2023/08/16 05:10:53;;;;;;;3.72;0.68;;;22.50;90.50;;;;;;5053162;28;20037;-81
2023/08/16 05:13:19;;;;;;;3.47;0.60;;;22.40;90.50;;;;;;5054263;28;20028;-81
2023/08/16 05:15:45;;;;;;;2.75;0.40;;;22.30;90.60;;;;;;5053262;28;20381;-81
2023/08/16 05:18:11;;;;;;;1.25;0.20;;;22.30;90.80;;;;;;5052584;28;20025;-81
2023/08/16 05:20:37;;;;;;;1.23;0.35;;;22.30;90.90;;;;;;5052547;28;20031;-81
2023/08/16 05:23:03;;;;;;;3.10;0.70;;;22.30;91.00;;;;;;5053806;28;20033;-81
2023/08/16 05:25:29;;;;;;;2.90;0.60;;;22.30;90.70;;;;;;5053013;28;20079;-81
2023/08/16 05:27:58;;;;;;;1.25;0.50;;;22.30;90.80;;;;;;5054039;28;20041;-80
2023/08/16 05:30:25;;;;;;;3.08;1.02;;;22.30;90.80;;;;;;5053332;28;20389;-79
2023/08/16 05:32:52;;;;;;;3.78;0.93;;;22.30;90.90;;;;;;5055313;28;20040;-80
2023/08/16 05:35:18;;;;;;;2.47;0.60;;;22.20;90.90;;;;;;5055278;28;20068;-80
2023/08/16 05:37:44;;;;;;;1.65;0.50;;;22.20;91.00;;;;;;5054345;28;20029;-80
2023/08/16 05:40:10;;;;;;;6.10;1.17;;;22.20;91.10;;;;;;5055829;28;20489;-80
2023/08/16 05:42:36;;;;;;;3.00;1.10;;;22.20;91.00;;;;;;5055511;28;20037;-80
2023/08/16 05:45:01;;;;;;;2.13;0.70;;;22.10;90.80;;;;;;5055612;28;20037;-80
2023/08/16 05:47:27;;;;;;;1.77;0.70;;;22.00;91.10;;;;;;5056023;28;20036;-80
2023/08/16 05:49:52;;;;;;;2.85;0.80;;;22.00;91.20;;;;;;5056500;28;20037;-79
2023/08/16 05:52:18;;;;;;;3.20;0.85;;;22.10;91.20;;;;;;5056438;28;20049;-79
2023/08/16 05:54:44;;;;;;;1.85;0.60;;;22.00;91.20;;;;;;5056798;28;20066;-79
2023/08/16 05:57:09;;;;;;;5.35;1.23;;;22.00;91.40;;;;;;5058262;28;20029;-80
2023/08/16 05:59:35;;;;;;;5.25;1.17;;;22.00;91.30;;;;;;5056562;28;20104;-80
2023/08/16 06:02:01;;;;;;;2.60;1.00;;;21.80;91.30;;;;;;5058614;28;20037;-80
2023/08/16 06:04:26;;;;;;;3.10;1.00;;;21.60;91.60;;;;;;5058769;28;20037;-80
2023/08/16 06:06:52;;;;;;;2.38;0.63;;;21.60;91.90;;;;;;5058920;28;20446;-80
2023/08/16 06:09:17;;;;;;;3.83;1.40;;;21.60;91.90;;;;;;5056150;28;20040;-80
2023/08/16 06:11:43;;;;;;;3.85;1.35;;;21.60;91.90;;;;;;5058085;28;20540;-80
2023/08/16 06:14:09;;;;;;;5.63;1.52;;;21.60;91.90;;;;;;5057235;28;20079;-80
2023/08/16 06:16:35;;;;;;;1.90;0.80;;;21.60;91.90;;;;;;5055562;28;20033;-80
2023/08/16 06:19:01;;;;;;;2.75;0.90;;;21.50;92.10;;;;;;5056066;28;20029;-80
2023/08/16 06:21:26;;;;;;;1.88;0.70;;;21.50;92.20;;;;;;5054898;28;20044;-80
2023/08/16 06:23:54;;;;;;;3.38;0.82;;;21.60;92.30;;;;;;5055184;28;20040;-80
2023/08/16 06:26:19;;;;;;;3.15;1.08;;;21.50;92.30;;;;;;5055254;28;20034;-80
2023/08/16 06:28:46;;;;;;;4.70;1.27;;;21.50;92.40;;;;;;5055212;28;20170;-80
2023/08/16 06:31:11;;;;;;;2.38;0.68;;;21.50;92.50;;;;;;5055747;28;20029;-80
2023/08/16 06:33:37;;;;;;;2.58;0.70;;;21.50;92.60;;;;;;5055133;28;20052;-80
2023/08/16 06:36:03;;;;;;;4.25;1.08;;;21.50;92.60;;;;;;5056776;28;20382;-80
2023/08/16 06:38:29;;;;;;;6.80;1.67;;;21.50;92.70;;;;;;5058759;28;20377;-79
2023/08/16 06:40:55;;;;;;;3.17;1.30;;;21.50;92.70;;;;;;5056071;28;20052;-81
2023/08/16 06:43:20;;;;;;;5.93;0.90;;;21.50;92.70;;;;;;5057563;28;20069;-81
2023/08/16 06:45:46;;;;;;;1.63;0.70;;;21.50;92.70;;;;;;5057432;28;20131;-81
2023/08/16 06:48:12;;;;;;;4.28;1.42;;;21.50;92.90;;;;;;5056803;28;20052;-80
2023/08/16 06:50:39;;;;;;;2.90;1.05;;;21.50;92.80;;;;;;5057725;28;20025;-80
2023/08/16 06:53:05;;;;;;;4.88;1.13;;;21.40;93.00;;;;;;5056116;28;20486;-80
2023/08/16 06:55:30;;;;;;;4.40;1.40;;;21.50;93.20;;;;;;5057543;28;20067;-81
2023/08/16 06:57:56;;;;;;;3.38;0.85;;;21.50;93.20;;;;;;5072451;28;20103;-81
2023/08/16 07:00:22;;;;;;;5.03;1.67;;;21.50;93.10;;;;;;5055782;28;20029;-81
2023/08/16 07:02:48;;;;;;;7.20;1.77;;;21.40;92.90;;;;;;5055569;28;20488;-81
2023/08/16 07:05:14;;;;;;;2.92;1.00;;;21.10;93.40;;;;;;5056989;28;20037;-81
2023/08/16 07:07:39;;;;;;;5.88;2.17;;;21.00;93.60;;;;;;5056660;28;20381;-81
2023/08/16 07:10:06;;;;;;;4.35;1.60;;;21.10;93.60;;;;;;5057254;28;20029;-81
2023/08/16 07:12:32;;;;;;;2.47;0.80;;;21.10;93.50;;;;;;5057615;28;20094;-81
2023/08/16 07:14:58;;;;;;;3.75;0.80;;;21.10;93.60;;;;;;5056795;28;20404;-80
2023/08/16 07:17:23;;;;;;;4.43;1.40;;;21.30;93.60;;;;;;5057622;28;20550;-80
2023/08/16 07:19:50;;;;;;;3.22;0.93;;;21.40;93.30;;;;;;5056232;28;20037;-80
2023/08/16 07:22:16;;;;;;;4.05;0.90;;;21.30;93.40;;;;;;5056462;28;20037;-81
2023/08/16 07:24:42;;;;;;;4.00;0.93;;;21.30;93.40;;;;;;5057654;28;20049;-81
2023/08/16 07:27:07;;;;;;;3.47;0.90;;;21.30;93.20;;;;;;5056543;28;20370;-81
2023/08/16 07:29:33;;;;;;;6.60;2.60;;;21.40;93.20;;;;;;5056514;28;20037;-81
2023/08/16 07:31:58;;;;;;;9.43;2.40;;;21.60;93.30;;;;;;5056709;28;20492;-80
2023/08/16 07:34:24;;;;;;;4.32;1.30;;;21.70;93.30;;;;;;5038620;28;20060;-80
2023/08/16 07:36:50;;;;;;;6.13;2.05;;;21.70;93.20;;;;;;5055223;28;20025;-81
2023/08/16 07:39:15;;;;;;;4.25;1.00;;;21.80;93.00;;;;;;5056446;28;20033;-81
2023/08/16 07:41:41;;;;;;;4.13;0.63;;;21.80;92.60;;;;;;5054796;28;20041;-81
2023/08/16 07:44:07;;;;;;;2.15;0.47;;;21.80;92.80;;;;;;5055693;28;20065;-80
2023/08/16 07:46:32;;;;;;;2.30;0.60;;;21.80;92.90;;;;;;5054841;28;20397;-80
2023/08/16 07:48:58;;;;;;;1.05;0.40;;;21.90;92.60;;;;;;5054773;28;20033;-81
2023/08/16 07:51:24;;;;;;;3.55;0.73;;;21.90;92.70;;;;;;5055626;28;20091;-81
2023/08/16 07:53:50;;;;;;;4.63;0.90;;;21.90;92.60;;;;;;5053976;28;20089;-81
2023/08/16 07:56:15;;;;;;;1.95;0.50;;;22.00;92.40;;;;;;5056433;28;20037;-80
2023/08/16 07:58:41;;;;;;;3.22;0.40;;;22.00;92.40;;;;;;5072020;28;20029;-80
2023/08/16 08:01:07;;;;;;;3.35;0.70;;;22.00;92.30;;;;;;5054848;28;20036;-80
2023/08/16 08:03:33;;;;;;;2.05;0.40;;;22.00;92.30;;;;;;5055961;28;20030;-80
2023/08/16 08:06:02;;;;;;;2.53;0.73;;;22.00;92.50;;;;;;5055325;28;20488;-80
2023/08/16 08:08:28;;;;;;;3.90;0.80;;;22.10;92.40;;;;;;5055814;28;20028;-79
2023/08/16 08:10:54;;;;;;;2.85;0.70;;;22.10;92.60;;;;;;5056219;28;20033;-80
2023/08/16 08:13:19;;;;;;;2.63;0.68;;;22.00;92.40;;;;;;5054690;28;20032;-80
2023/08/16 08:15:46;;;;;;;2.35;1.00;;;22.00;92.50;;;;;;5054741;28;20032;-81
2023/08/16 08:18:12;;;;;;;3.03;0.63;;;21.90;92.80;;;;;;5054935;28;20036;-81
2023/08/16 08:20:38;;;;;;;4.90;0.80;;;21.90;92.80;;;;;;5056225;28;20033;-81
2023/08/16 08:23:04;;;;;;;2.80;0.45;;;21.90;93.20;;;;;;5056043;28;20063;-81
2023/08/16 08:25:30;;;;;;;3.15;0.70;;;21.90;93.20;;;;;;5055489;28;20112;-80
2023/08/16 08:27:56;;;;;;;6.03;0.82;;;22.20;93.10;;;;;;5055189;28;20029;-81
2023/08/16 08:30:22;;;;;;;4.20;0.95;;;22.30;92.70;;;;;;5054261;28;20082;-81
2023/08/16 08:32:48;;;;;;;2.70;0.40;;;22.30;92.20;;;;;;5056016;28;20039;-80
2023/08/16 08:35:13;;;;;;;3.05;0.60;;;22.30;92.40;;;;;;5054603;28;20140;-81
2023/08/16 08:37:39;;;;;;;4.05;0.40;;;22.40;92.40;;;;;;5055722;28;20477;-81
2023/08/16 08:40:05;;;;;;;2.60;0.60;;;22.30;91.90;;;;;;5055965;28;20040;-80
2023/08/16 08:42:32;;;;;;;5.65;0.70;;;22.30;92.00;;;;;;5054676;28;20385;-81
2023/08/16 08:44:59;;;;;;;1.98;0.60;;;22.20;92.00;;;;;;5056359;28;20088;-80
2023/08/16 08:47:25;;;;;;;3.30;0.80;;;22.20;92.20;;;;;;5057154;28;20036;-81
2023/08/16 08:49:52;;;;;;;3.20;0.70;;;22.30;92.70;;;;;;5056490;28;20025;-81
2023/08/16 08:52:20;;;;;;;3.95;0.88;;;22.40;92.80;;;;;;5055317;28;20401;-81
2023/08/16 08:54:46;;;;;;;4.57;1.15;;;22.60;93.00;;;;;;5056085;28;20032;-81
2023/08/16 08:57:14;;;;;;;9.25;1.20;;;22.70;92.60;;;;;;5057703;28;20025;-81
2023/08/16 08:59:45;;;;;;;3.60;0.77;;;22.80;92.70;;;;;;5056458;28;20053;-80
2023/08/16 09:02:12;;;;;;;2.20;0.57;;;22.80;92.80;;;;;;5057186;28;20064;-81
2023/08/16 09:04:40;;;;;;;6.10;0.98;;;23.00;92.80;;;;;;5054699;28;20354;-81
2023/08/16 09:07:07;;;;;;;4.68;1.00;;;23.10;92.80;;;;;;5058309;28;20124;-81
2023/08/16 09:09:34;;;;;;;3.75;1.20;;;23.30;92.60;;;;;;5057420;28;20021;-81
2023/08/16 09:12:00;;;;;;;4.40;1.90;;;23.30;92.60;;;;;;5058219;28;20037;-81
2023/08/16 09:14:26;;;;;;;5.38;2.40;;;23.40;92.20;;;;;;5057833;28;20541;-81
2023/08/16 09:16:52;;;;;;;5.05;1.15;;;23.40;92.30;;;;;;5057354;28;20096;-81
2023/08/16 09:19:18;;;;;;;7.30;1.80;;;23.50;92.40;;;;;;5059364;28;20060;-82
2023/08/16 09:21:43;;;;;;;5.05;0.93;;;23.50;92.20;;;;;;5058118;28;20041;-81
2023/08/16 09:24:12;;;;;;;5.70;1.20;;;23.60;91.70;;;;;;5054765;28;20029;-80
2023/08/16 09:26:39;;;;;;;6.57;1.15;;;23.60;91.80;;;;;;5056666;28;20024;-82
2023/08/16 09:29:06;;;;;;;3.85;1.00;;;23.70;91.10;;;;;;5055756;28;20037;-82
2023/08/16 09:31:39;;;;;;;4.35;1.13;;;23.80;90.70;;;;;;5056246;28;20033;-81
2023/08/16 09:34:09;;;;;;;3.63;0.70;;;24.00;90.40;;;;;;5056611;28;20495;-81
2023/08/16 09:36:35;;;;;;;5.03;1.20;;;24.10;90.80;;;;;;5057409;28;20047;-80
2023/08/16 09:39:09;;;;;;;4.38;0.73;;;24.30;89.60;;;;;;5056172;28;20106;-81
2023/08/16 09:41:38;;;;;;;4.28;0.77;;;24.20;90.00;;;;;;5056394;28;20037;-81
2023/08/16 09:44:06;;;;;;;5.88;0.80;;;24.20;89.70;;;;;;5056779;28;20477;-81
2023/08/16 09:46:33;;;;;;;4.50;0.80;;;24.20;90.50;;;;;;5054181;28;20160;-82
2023/08/16 09:49:07;;;;;;;1.60;0.60;;;24.30;90.30;;;;;;5056112;28;20040;-82
2023/08/16 09:51:35;;;;;;;3.92;0.80;;;24.40;90.10;;;;;;5054110;28;20032;-82
2023/08/16 09:54:03;;;;;;;3.80;1.20;;;24.40;89.80;;;;;;5056076;28;20048;-83
2023/08/16 09:56:32;;;;;;;3.65;0.65;;;24.60;88.60;;;;;;5056334;28;20040;-82
2023/08/16 09:58:59;;;;;;;2.30;0.50;;;24.60;88.70;;;;;;5056377;28;20033;-82
2023/08/16 10:01:25;;;;;;;2.38;0.40;;;24.60;85.10;;;;;;5055267;28;20072;-82
2023/08/16 10:03:55;;;;;;;3.33;0.60;;;24.70;85.80;;;;;;5055598;28;20033;-83
2023/08/16 10:06:24;;;;;;;2.83;0.50;;;24.80;83.80;;;;;;5055525;28;20071;-82
2023/08/16 10:08:52;;;;;;;2.47;0.50;;;25.00;83.50;;;;;;5056922;28;20104;-83
2023/08/16 10:11:22;;;;;;;3.72;0.60;;;25.10;83.00;;;;;;5056470;28;20540;-82
2023/08/16 10:13:48;;;;;;;2.65;0.50;;;25.30;84.00;;;;;;5055068;28;20029;-82
2023/08/16 10:16:21;;;;;;;3.63;0.63;;;25.20;82.10;;;;;;5059119;28;20025;-82
2023/08/16 10:18:47;;;;;;;2.28;0.38;;;25.20;82.40;;;;;;5060534;28;20021;-82
2023/08/16 10:21:17;;;;;;;5.15;0.63;;;25.30;82.30;;;;;;5058704;28;20056;-82
2023/08/16 10:23:44;;;;;;;3.83;0.80;;;25.30;84.60;;;;;;5061411;28;20048;-81
2023/08/16 10:26:15;;;;;;;5.15;0.95;;;25.40;83.20;;;;;;5058841;28;20029;-82
2023/08/16 10:28:49;;;;;;;2.03;0.55;;;25.50;83.20;;;;;;5060170;28;20029;-82
2023/08/16 10:31:29;;;;;;;2.75;0.45;;;25.50;81.70;;;;;;5059718;28;20404;-83
2023/08/16 10:33:57;;;;;;;4.03;0.88;;;25.40;82.50;;;;;;5059409;28;20043;-82
2023/08/16 10:36:23;;;;;;;2.63;0.70;;;25.40;82.50;;;;;;5059681;28;20025;-81
2023/08/16 10:38:56;;;;;;;2.70;0.77;;;25.40;82.30;;;;;;5058638;28;20051;-82
2023/08/16 10:41:22;;;;;;;2.65;0.47;;;25.60;83.80;;;;;;5059117;28;20409;-82
2023/08/16 10:43:57;;;;;;;3.17;0.50;;;25.80;84.50;;;;;;5059148;28;20561;-83
2023/08/16 10:46:33;;;;;;;5.55;0.82;;;26.00;82.60;;;;;;5059772;28;20457;-82
2023/08/16 10:49:02;;;;;;;5.10;0.50;;;26.00;81.80;;;;;;5058729;28;20029;-81
2023/08/16 10:51:28;;;;;;;6.45;0.60;;;25.90;82.10;;;;;;5058668;28;20072;-82
2023/08/16 10:53:58;;;;;;;3.67;0.57;;;26.00;80.10;;;;;;5058893;28;20102;-82
2023/08/16 10:56:23;;;;;;;5.22;0.63;;;26.20;79.80;;;;;;5058983;28;20044;-82
2023/08/16 10:58:51;;;;;;;2.85;0.30;;;26.20;79.50;;;;;;5058461;28;20029;-83
2023/08/16 11:01:18;;;;;;;3.20;0.45;;;26.20;78.90;;;;;;5058486;28;20040;-83
2023/08/16 11:03:44;;;;;;;2.17;0.50;;;26.10;80.30;;;;;;5056948;28;20075;-84
2023/08/16 11:06:11;;;;;;;3.25;0.73;;;26.20;79.10;;;;;;5056072;28;20543;-83
2023/08/16 11:08:42;;;;;;;3.45;0.60;;;26.20;79.40;;;;;;5056752;28;20029;-82
2023/08/16 11:11:08;;;;;;;3.20;0.60;;;26.30;79.00;;;;;;5059080;28;20552;-83
2023/08/16 11:13:34;;;;;;;4.68;0.75;;;26.40;79.00;;;;;;5058826;28;20052;-83
2023/08/16 11:16:00;;;;;;;4.15;0.70;;;26.30;77.30;;;;;;5056425;28;20111;-84
2023/08/16 11:18:31;;;;;;;2.72;0.47;;;26.20;78.20;;;;;;5058425;28;20029;-82
2023/08/16 11:21:00;;;;;;;2.72;0.57;;;26.30;77.60;;;;;;5059326;28;20445;-83
2023/08/16 11:23:37;;;;;;;3.80;0.47;;;26.40;76.00;;;;;;5058418;28;20112;-82
2023/08/16 11:26:04;;;;;;;2.22;0.32;;;26.70;78.00;;;;;;5058549;28;20025;-82
2023/08/16 11:28:31;;;;;;;4.45;0.52;;;26.80;78.10;;;;;;5057702;28;20028;-71
2023/08/16 11:31:04;;;;;;;1.67;0.30;;;27.00;76.90;;;;;;5055966;28;20116;-71
2023/08/16 11:33:43;;;;;;;3.28;0.40;;;26.90;76.50;;;;;;5056009;28;20029;-71
2023/08/16 11:36:15;;;;;;;3.03;0.73;;;26.90;77.50;;;;;;5055901;28;20021;-72
2023/08/16 11:38:41;;;;;;;3.65;0.70;;;27.00;76.50;;;;;;5054879;28;20036;-72
2023/08/16 11:41:07;;;;;;;2.13;0.40;;;27.00;75.90;;;;;;5056177;28;20377;-70
2023/08/16 11:43:36;;;;;;;2.13;0.50;;;27.00;75.70;;;;;;5055712;28;20535;-71
2023/08/16 11:46:04;;;;;;;2.40;0.57;;;27.20;76.10;;;;;;5058695;28;20029;-83
2023/08/16 11:48:30;;;;;;;2.47;0.43;;;27.20;73.70;;;;;;5060697;28;20091;-82
2023/08/16 11:50:57;;;;;;;2.90;0.40;;;27.20;73.20;;;;;;5060101;28;20388;-83
2023/08/16 11:53:31;;;;;;;3.03;0.38;;;27.20;73.30;;;;;;5063479;28;20056;-83
2023/08/16 11:56:02;;;;;;;3.20;0.35;;;27.20;76.40;;;;;;5064456;28;20036;-82
2023/08/16 11:58:28;;;;;;;2.25;0.73;;;27.20;75.10;;;;;;5063204;28;20523;-82
2023/08/16 12:01:04;;;;;;;4.28;0.52;;;27.20;74.20;;;;;;5059148;28;20025;-83
2023/08/16 12:03:33;;;;;;;2.30;0.60;;;27.20;74.40;;;;;;5060871;28;20033;-83
2023/08/16 12:06:10;;;;;;;3.28;0.50;;;27.30;75.90;;;;;;5061623;28;20020;-84
2023/08/16 12:09:06;;;;;;;1.40;0.50;;;27.20;72.30;;;;;;5061789;28;20079;-81
2023/08/16 12:11:33;;;;;;;2.08;0.50;;;27.20;73.80;;;;;;5057532;28;20128;-82
2023/08/16 12:14:01;;;;;;;2.35;0.40;;;27.20;73.00;;;;;;5061063;28;20029;-82
2023/08/16 12:16:27;;;;;;;1.80;0.30;;;27.10;74.50;;;;;;5061883;28;20029;-82
2023/08/16 12:18:52;;;;;;;3.97;0.50;;;27.10;73.20;;;;;;5059926;28;20037;-83
2023/08/16 12:21:18;;;;;;;3.90;0.63;;;27.10;72.90;;;;;;5060938;28;20033;-82
2023/08/16 12:23:46;;;;;;;1.63;0.30;;;26.80;74.20;;;;;;5057909;28;20052;-83
2023/08/16 12:26:13;;;;;;;5.93;0.40;;;26.70;75.30;;;;;;5055770;28;20045;-83
2023/08/16 12:28:39;;;;;;;2.47;0.40;;;26.70;74.70;;;;;;5055426;28;20078;-83
2023/08/16 12:31:05;;;;;;;3.28;0.30;;;26.70;74.60;;;;;;5054793;28;20037;-83
2023/08/16 12:33:30;;;;;;;2.55;0.45;;;26.60;75.20;;;;;;5053632;28;20079;-82
2023/08/16 12:35:56;;;;;;;3.08;0.50;;;26.60;75.80;;;;;;5054950;28;20065;-83
2023/08/16 12:38:22;;;;;;;2.67;0.63;;;26.80;75.50;;;;;;5055152;28;20035;-83
2023/08/16 12:40:47;;;;;;;3.90;0.75;;;26.90;74.70;;;;;;5053961;28;20450;-83
2023/08/16 12:43:14;;;;;;;2.08;0.25;;;27.10;74.00;;;;;;5070167;28;20072;-84
2023/08/16 12:45:40;;;;;;;1.98;0.20;;;27.10;70.80;;;;;;5055278;28;20033;-83
2023/08/16 12:48:06;;;;;;;2.20;0.38;;;27.00;71.90;;;;;;5054571;28;20071;-83